Time;durP1;ratioP1;P1;durP2;ratioP2;P2;SDS_P1;SDS_P2;PMS_P1;PMS_P2;Temp;Humidity;BMP_temperature;BMP_pressure;BME280_temperature;BME280_humidity;BME280_pressure;Samples;Min_cycle;Max_cycle;Signal;HPM_P1;HPM_P2
2023/07/19 00:00:42;;;;;;;4.07;2.30;;;15.60;99.90;;;;;;5093279;28;20171;-45
2023/07/19 00:03:08;;;;;;;4.77;3.00;;;15.50;99.90;;;;;;5094118;28;20182;-45
2023/07/19 00:05:34;;;;;;;7.33;3.07;;;15.50;99.90;;;;;;5093477;28;20206;-45
2023/07/19 00:08:02;;;;;;;5.90;2.70;;;15.50;99.90;;;;;;5093654;28;20190;-47
2023/07/19 00:10:28;;;;;;;6.57;2.37;;;15.50;99.90;;;;;;5093332;28;20186;-46
2023/07/19 00:12:53;;;;;;;4.37;2.23;;;15.40;99.90;;;;;;5093466;28;20305;-45
2023/07/19 00:15:19;;;;;;;5.07;2.70;;;15.40;99.90;;;;;;5093714;28;20309;-46
2023/07/19 00:17:45;;;;;;;6.97;2.67;;;15.30;99.90;;;;;;5093528;28;20213;-45
2023/07/19 00:20:11;;;;;;;5.10;2.50;;;15.30;99.90;;;;;;5093162;28;20266;-45
2023/07/19 00:22:38;;;;;;;2.83;2.23;;;15.30;99.90;;;;;;5093183;28;20194;-46
2023/07/19 00:25:03;;;;;;;6.57;1.90;;;15.30;99.90;;;;;;5093113;28;20202;-46
2023/07/19 00:27:29;;;;;;;4.07;2.20;;;15.30;99.90;;;;;;5093166;28;20282;-44
2023/07/19 00:29:55;;;;;;;7.30;2.67;;;15.30;99.90;;;;;;5093201;28;20657;-43
2023/07/19 00:32:20;;;;;;;4.93;2.50;;;15.30;99.90;;;;;;5092810;28;20641;-46
2023/07/19 00:34:46;;;;;;;6.37;2.67;;;15.30;1.00;;;;;;5092871;28;20206;-45
2023/07/19 00:37:11;;;;;;;4.83;2.63;;;15.20;1.00;;;;;;5092829;28;20190;-45
2023/07/19 00:39:37;;;;;;;4.07;2.50;;;15.20;1.00;;;;;;5093098;28;20637;-46
2023/07/19 00:42:03;;;;;;;4.37;2.20;;;15.20;1.00;;;;;;5092757;28;20270;-44
2023/07/19 00:44:29;;;;;;;4.23;2.43;;;15.20;1.00;;;;;;5094003;28;20278;-45
2023/07/19 00:46:55;;;;;;;3.17;2.20;;;15.10;1.00;;;;;;5096361;28;20202;-46
2023/07/19 00:49:20;;;;;;;4.93;2.67;;;15.10;1.00;;;;;;5096325;28;20179;-47
2023/07/19 00:51:46;;;;;;;5.70;2.57;;;15.10;1.00;;;;;;5096714;28;20616;-46
2023/07/19 00:54:13;;;;;;;6.77;2.80;;;15.10;1.00;;;;;;5096236;28;20260;-45
2023/07/19 00:56:42;;;;;;;6.83;2.53;;;15.00;1.00;;;;;;5096198;28;20202;-45
2023/07/19 00:59:07;;;;;;;3.73;2.37;;;15.00;1.00;;;;;;5096438;28;20198;-44
2023/07/19 01:01:34;;;;;;;6.57;2.63;;;15.00;1.00;;;;;;5096382;28;20283;-45
2023/07/19 01:04:00;;;;;;;3.97;2.83;;;14.90;1.00;;;;;;5096079;28;20553;-43
2023/07/19 01:06:26;;;;;;;8.53;2.83;;;14.90;1.00;;;;;;5096008;28;20202;-45
2023/07/19 01:08:51;;;;;;;5.53;2.47;;;14.80;1.00;;;;;;5096223;28;20210;-44
2023/07/19 01:11:17;;;;;;;4.27;2.40;;;14.80;1.00;;;;;;5095953;28;20179;-47
2023/07/19 01:13:53;;;;;;;4.13;2.47;;;14.70;1.00;;;;;;5096072;28;20214;-46
2023/07/19 01:16:19;;;;;;;5.23;2.67;;;14.70;1.00;;;;;;5095738;28;20563;-45
2023/07/19 01:18:45;;;;;;;8.60;2.83;;;14.70;1.00;;;;;;5096225;28;20667;-47
2023/07/19 01:21:10;;;;;;;5.30;2.87;;;14.70;1.00;;;;;;5096726;28;20175;-46
2023/07/19 01:23:36;;;;;;;6.20;2.60;;;14.70;1.00;;;;;;5096548;28;20190;-45
2023/07/19 01:26:03;;;;;;;10.43;2.67;;;14.60;1.00;;;;;;5096383;28;20560;-46
2023/07/19 01:28:28;;;;;;;8.07;3.00;;;14.60;1.00;;;;;;5095896;28;20183;-45
2023/07/19 01:30:54;;;;;;;12.53;2.80;;;14.60;1.00;;;;;;5095553;28;20258;-49
2023/07/19 01:33:19;;;;;;;10.07;2.50;;;14.60;1.00;;;;;;5096031;28;20178;-47
2023/07/19 01:35:45;;;;;;;7.63;2.77;;;14.50;1.00;;;;;;5095383;28;20214;-48
2023/07/19 01:38:11;;;;;;;7.03;2.70;;;14.50;1.00;;;;;;5095400;28;20206;-48
2023/07/19 01:40:36;;;;;;;5.30;2.70;;;14.50;1.00;;;;;;5095643;28;20527;-46
2023/07/19 01:43:02;;;;;;;4.17;2.27;;;14.50;1.00;;;;;;5095413;28;20266;-46
2023/07/19 01:45:27;;;;;;;9.13;2.53;;;14.50;1.00;;;;;;5095223;28;20221;-46
2023/07/19 01:47:53;;;;;;;6.80;2.30;;;14.40;1.00;;;;;;5095194;28;20205;-46
2023/07/19 01:50:19;;;;;;;4.73;2.70;;;14.40;1.00;;;;;;5095161;28;20665;-46
2023/07/19 01:52:44;;;;;;;9.17;2.93;;;14.40;1.00;;;;;;5095093;28;20198;-45
2023/07/19 01:55:10;;;;;;;5.43;2.87;;;14.30;1.00;;;;;;5094220;28;20597;-47
2023/07/19 01:57:36;;;;;;;7.53;2.63;;;14.30;1.00;;;;;;5094573;28;20186;-46
2023/07/19 02:00:03;;;;;;;6.47;2.97;;;14.30;1.00;;;;;;5094990;28;20318;-46
2023/07/19 02:02:28;;;;;;;8.17;2.67;;;14.30;1.00;;;;;;5094917;28;20623;-46
2023/07/19 02:04:54;;;;;;;11.17;3.13;;;14.20;1.00;;;;;;5095048;28;20186;-44
2023/07/19 02:07:20;;;;;;;5.93;2.50;;;14.20;1.00;;;;;;5095123;28;20182;-44
2023/07/19 02:09:46;;;;;;;7.30;2.77;;;14.20;1.00;;;;;;5094787;28;20182;-45
2023/07/19 02:12:12;;;;;;;5.93;2.20;;;14.20;1.00;;;;;;5094946;28;20210;-47
2023/07/19 02:14:37;;;;;;;5.50;2.60;;;14.20;1.00;;;;;;5094790;28;20591;-45
2023/07/19 02:17:03;;;;;;;8.07;2.77;;;14.20;1.00;;;;;;5094856;28;20179;-46
2023/07/19 02:19:29;;;;;;;9.03;2.83;;;14.20;1.00;;;;;;5094818;28;20186;-47
2023/07/19 02:21:54;;;;;;;14.70;3.70;;;14.20;1.00;;;;;;5094787;28;20577;-45
2023/07/19 02:24:20;;;;;;;10.87;3.00;;;14.20;1.00;;;;;;5094747;28;20187;-44
2023/07/19 02:26:46;;;;;;;7.87;3.37;;;14.20;1.00;;;;;;5094421;28;20194;-46
2023/07/19 02:29:11;;;;;;;10.30;2.83;;;14.30;1.00;;;;;;5076196;28;20240;-45
2023/07/19 02:31:37;;;;;;;12.63;3.17;;;14.40;1.00;;;;;;5094436;28;20187;-42
2023/07/19 02:34:06;;;;;;;7.47;2.73;;;14.50;1.00;;;;;;5094534;28;20201;-41
2023/07/19 02:36:34;;;;;;;5.47;2.80;;;14.50;1.00;;;;;;5094460;28;20289;-42
2023/07/19 02:39:01;;;;;;;9.67;3.10;;;14.60;1.00;;;;;;5094510;28;20221;-41
2023/07/19 02:41:26;;;;;;;4.57;2.80;;;14.60;1.00;;;;;;5094298;28;20187;-43
2023/07/19 02:43:52;;;;;;;9.50;4.00;;;14.70;1.00;;;;;;5094380;28;20185;-41
2023/07/19 02:46:17;;;;;;;3.80;2.87;;;14.70;1.00;;;;;;5094332;28;20209;-40
2023/07/19 02:48:43;;;;;;;6.33;3.43;;;14.70;1.00;;;;;;5094253;28;20182;-41
2023/07/19 02:51:09;;;;;;;7.73;2.97;;;14.70;1.00;;;;;;5094339;28;20645;-42
2023/07/19 02:53:35;;;;;;;4.57;2.90;;;14.70;1.00;;;;;;5093727;28;20202;-41
2023/07/19 02:56:00;;;;;;;2.80;2.47;;;14.80;1.00;;;;;;5094068;28;20659;-42
2023/07/19 02:58:27;;;;;;;4.67;2.80;;;14.80;1.00;;;;;;5093923;28;20189;-39
2023/07/19 03:00:53;;;;;;;5.30;3.20;;;14.80;1.00;;;;;;5093834;28;20265;-41
2023/07/19 03:03:19;;;;;;;5.50;3.20;;;14.80;1.00;;;;;;5093822;28;20175;-39
2023/07/19 03:05:45;;;;;;;7.67;3.13;;;14.90;1.00;;;;;;5093975;28;20678;-40
2023/07/19 03:08:11;;;;;;;6.53;3.27;;;14.90;1.00;;;;;;5093690;28;20636;-40
2023/07/19 03:10:38;;;;;;;7.27;3.40;;;14.90;1.00;;;;;;5093920;28;20194;-41
2023/07/19 03:13:03;;;;;;;6.37;3.13;;;14.90;1.00;;;;;;5093953;28;20186;-43
2023/07/19 03:15:33;;;;;;;6.47;3.03;;;14.90;1.00;;;;;;5075335;28;20218;-39
2023/07/19 03:18:05;;;;;;;7.50;3.10;;;15.00;1.00;;;;;;5093848;28;20190;-41
2023/07/19 03:20:31;;;;;;;7.97;3.63;;;14.90;1.00;;;;;;5093603;28;20183;-41
2023/07/19 03:22:57;;;;;;;8.10;3.60;;;14.90;1.00;;;;;;5093819;28;20179;-41
2023/07/19 03:25:24;;;;;;;5.23;3.30;;;14.90;1.00;;;;;;5093797;28;20206;-43
2023/07/19 03:27:50;;;;;;;6.27;3.47;;;14.90;1.00;;;;;;5093742;28;20627;-41
2023/07/19 03:30:16;;;;;;;8.43;3.57;;;15.00;1.00;;;;;;5093725;28;20191;-40
2023/07/19 03:32:41;;;;;;;5.50;3.60;;;15.00;1.00;;;;;;5094029;28;20500;-43
2023/07/19 03:35:07;;;;;;;5.53;3.40;;;15.00;1.00;;;;;;5093514;28;20224;-42
2023/07/19 03:37:34;;;;;;;7.97;3.50;;;15.00;1.00;;;;;;5093699;28;20269;-43
2023/07/19 03:40:00;;;;;;;8.83;3.93;;;15.00;1.00;;;;;;5093537;28;20186;-41
2023/07/19 03:42:26;;;;;;;4.73;3.53;;;15.00;1.00;;;;;;5093372;28;20409;-41
2023/07/19 03:44:51;;;;;;;6.40;4.13;;;15.00;1.00;;;;;;5093245;28;20677;-43
2023/07/19 03:47:18;;;;;;;4.87;3.43;;;15.00;1.00;;;;;;5093357;28;20202;-43
2023/07/19 03:49:44;;;;;;;8.93;3.93;;;15.00;1.00;;;;;;5075141;28;20206;-39
2023/07/19 03:52:09;;;;;;;9.07;4.00;;;15.00;1.00;;;;;;5093283;28;20210;-40
2023/07/19 03:54:35;;;;;;;7.40;3.60;;;15.00;1.00;;;;;;5093004;28;20218;-42
2023/07/19 03:57:01;;;;;;;8.73;3.80;;;14.90;1.00;;;;;;5093073;28;20563;-40
2023/07/19 03:59:27;;;;;;;5.33;3.63;;;15.00;1.00;;;;;;5093412;28;20187;-42
2023/07/19 04:01:52;;;;;;;6.30;3.97;;;15.00;1.00;;;;;;5093443;28;20230;-41
2023/07/19 04:04:18;;;;;;;5.23;3.70;;;15.00;1.00;;;;;;5093107;28;20218;-42
2023/07/19 04:06:44;;;;;;;4.43;3.67;;;15.00;1.00;;;;;;5092978;28;20309;-42
2023/07/19 04:09:10;;;;;;;7.10;3.67;;;15.00;1.00;;;;;;5093074;28;20179;-42
2023/07/19 04:11:35;;;;;;;5.17;3.70;;;15.00;1.00;;;;;;5093197;28;20183;-40
2023/07/19 04:14:01;;;;;;;5.10;3.57;;;15.00;1.00;;;;;;5093237;28;20203;-41
2023/07/19 04:16:27;;;;;;;5.77;3.77;;;15.00;1.00;;;;;;5092912;28;20203;-42
2023/07/19 04:18:52;;;;;;;10.13;3.67;;;15.10;1.00;;;;;;5093447;28;20175;-42
2023/07/19 04:21:19;;;;;;;9.80;3.90;;;15.10;1.00;;;;;;5096869;28;20175;-41
2023/07/19 04:23:44;;;;;;;5.30;3.60;;;15.10;1.00;;;;;;5097118;28;20183;-42
2023/07/19 04:26:10;;;;;;;5.37;3.77;;;15.10;1.00;;;;;;5078571;28;20702;-42
2023/07/19 04:28:36;;;;;;;5.50;3.70;;;15.10;1.00;;;;;;5097017;28;20308;-41
2023/07/19 04:31:01;;;;;;;6.67;3.80;;;15.10;1.00;;;;;;5096949;28;20182;-43
2023/07/19 04:33:27;;;;;;;5.77;3.90;;;15.20;1.00;;;;;;5096891;28;20622;-41
2023/07/19 04:35:52;;;;;;;10.20;4.17;;;15.20;1.00;;;;;;5096800;28;20201;-42
2023/07/19 04:38:18;;;;;;;8.33;4.40;;;15.20;1.00;;;;;;5078316;28;20174;-42
2023/07/19 04:40:44;;;;;;;7.90;4.87;;;15.20;1.00;;;;;;5097283;28;20327;-42
2023/07/19 04:43:09;;;;;;;7.23;3.90;;;15.20;1.00;;;;;;5096409;28;20182;-42
2023/07/19 04:45:35;;;;;;;6.60;4.10;;;15.30;1.00;;;;;;5096370;28;20199;-44
2023/07/19 04:48:01;;;;;;;6.63;4.13;;;15.30;1.00;;;;;;5096615;28;20178;-42
2023/07/19 04:50:27;;;;;;;5.67;3.63;;;15.30;1.00;;;;;;5096366;28;20527;-41
2023/07/19 04:52:53;;;;;;;6.57;3.83;;;15.40;1.00;;;;;;5096874;28;20231;-41
2023/07/19 04:55:20;;;;;;;5.57;4.43;;;15.40;1.00;;;;;;5077832;28;20227;-43
2023/07/19 04:57:45;;;;;;;5.17;4.00;;;15.40;1.00;;;;;;5096735;28;20189;-43
2023/07/19 05:00:12;;;;;;;6.47;3.83;;;15.50;1.00;;;;;;5096830;28;20174;-43
2023/07/19 05:02:38;;;;;;;5.43;3.77;;;15.50;1.00;;;;;;5096158;28;20179;-43
2023/07/19 05:05:05;;;;;;;10.77;4.33;;;15.60;1.00;;;;;;5096104;28;20209;-42
2023/07/19 05:07:37;;;;;;;8.40;3.90;;;15.60;1.00;;;;;;5096128;28;20602;-41
2023/07/19 05:10:04;;;;;;;8.13;4.00;;;15.70;1.00;;;;;;5096610;28;20167;-41
2023/07/19 05:12:31;;;;;;;8.13;4.37;;;15.70;1.00;;;;;;5096631;28;20232;-42
2023/07/19 05:14:57;;;;;;;11.00;4.70;;;15.80;1.00;;;;;;5096158;28;20658;-42
2023/07/19 05:17:22;;;;;;;13.63;4.90;;;15.90;1.00;;;;;;5096128;28;20229;-42
2023/07/19 05:19:48;;;;;;;11.57;4.00;;;15.90;1.00;;;;;;5096045;28;20179;-41
2023/07/19 05:22:14;;;;;;;11.97;4.70;;;15.90;1.00;;;;;;5095781;28;20179;-43
2023/07/19 05:24:40;;;;;;;12.20;4.47;;;16.00;1.00;;;;;;5096249;28;20179;-41
2023/07/19 05:27:06;;;;;;;5.97;3.93;;;16.10;1.00;;;;;;5095740;28;20186;-42
2023/07/19 05:29:33;;;;;;;13.03;5.13;;;16.10;1.00;;;;;;5095895;28;20175;-39
2023/07/19 05:31:58;;;;;;;7.50;4.60;;;16.10;1.00;;;;;;5095516;28;20202;-40
2023/07/19 05:34:24;;;;;;;7.90;4.30;;;16.10;1.00;;;;;;5095606;28;20287;-42
2023/07/19 05:36:50;;;;;;;14.17;5.30;;;16.20;1.00;;;;;;5095427;28;20191;-43
2023/07/19 05:39:16;;;;;;;7.40;4.33;;;16.40;1.00;;;;;;5096460;28;20178;-41
2023/07/19 05:41:42;;;;;;;6.80;4.03;;;16.40;1.00;;;;;;5095373;28;20628;-43
2023/07/19 05:44:07;;;;;;;7.77;4.70;;;16.50;1.00;;;;;;5095592;28;20210;-42
2023/07/19 05:46:36;;;;;;;6.50;4.10;;;16.50;1.00;;;;;;5095183;28;20679;-41
2023/07/19 05:49:03;;;;;;;8.33;4.30;;;16.50;1.00;;;;;;5095296;28;20181;-42
2023/07/19 05:51:28;;;;;;;6.63;4.30;;;16.60;1.00;;;;;;5095151;28;20177;-43
2023/07/19 05:53:54;;;;;;;8.57;4.50;;;16.60;1.00;;;;;;5095109;28;20214;-43
2023/07/19 05:56:21;;;;;;;9.07;4.30;;;16.70;1.00;;;;;;5094984;28;20190;-41
2023/07/19 05:58:47;;;;;;;8.30;4.77;;;16.70;1.00;;;;;;5095009;28;20189;-42
2023/07/19 06:01:17;;;;;;;9.23;4.53;;;16.80;1.00;;;;;;5095256;28;20179;-40
2023/07/19 06:03:46;;;;;;;7.97;4.53;;;16.90;1.00;;;;;;5094866;28;20171;-43
2023/07/19 06:06:12;;;;;;;9.97;4.53;;;16.90;1.00;;;;;;5094847;28;20316;-43
2023/07/19 06:08:38;;;;;;;17.70;4.90;;;17.00;1.00;;;;;;5094838;28;20175;-42
2023/07/19 06:11:04;;;;;;;12.93;4.40;;;17.20;1.00;;;;;;5094790;28;20194;-39
2023/07/19 06:13:29;;;;;;;11.17;5.50;;;17.20;1.00;;;;;;5076522;28;20666;-40
2023/07/19 06:15:56;;;;;;;15.47;4.90;;;17.30;1.00;;;;;;5094880;28;20191;-41
2023/07/19 06:18:22;;;;;;;8.57;4.57;;;17.40;1.00;;;;;;5094885;28;20546;-42
2023/07/19 06:20:48;;;;;;;12.47;5.20;;;17.60;1.00;;;;;;5094563;28;20171;-43
2023/07/19 06:23:14;;;;;;;12.77;5.43;;;17.70;1.00;;;;;;5094565;28;20198;-41
2023/07/19 06:25:40;;;;;;;8.90;4.63;;;17.80;1.00;;;;;;5094702;28;20675;-41
2023/07/19 06:28:06;;;;;;;9.87;5.20;;;17.80;1.00;;;;;;5094515;28;20175;-42
2023/07/19 06:30:32;;;;;;;10.57;4.77;;;17.80;1.00;;;;;;5094703;28;20186;-42
2023/07/19 06:32:57;;;;;;;12.43;5.07;;;17.90;1.00;;;;;;5094825;28;20182;-42
2023/07/19 06:35:23;;;;;;;7.53;4.40;;;18.00;1.00;;;;;;5094303;28;20202;-43
2023/07/19 06:37:48;;;;;;;11.37;4.87;;;18.10;1.00;;;;;;5094682;28;20171;-41
2023/07/19 06:40:15;;;;;;;7.50;4.37;;;18.20;1.00;;;;;;5095018;28;20220;-42
2023/07/19 06:42:42;;;;;;;9.13;4.93;;;18.30;1.00;;;;;;5097198;28;20179;-41
2023/07/19 06:45:09;;;;;;;10.70;4.13;;;18.30;1.00;;;;;;5097571;28;20203;-42
2023/07/19 06:47:35;;;;;;;14.40;4.97;;;18.40;1.00;;;;;;5097545;28;20217;-42
2023/07/19 06:50:00;;;;;;;9.50;4.70;;;18.40;1.00;;;;;;5097103;28;20175;-41
2023/07/19 06:52:26;;;;;;;6.80;4.60;;;18.50;1.00;;;;;;5094630;28;20194;-44
2023/07/19 06:54:51;;;;;;;9.43;4.60;;;18.50;1.00;;;;;;5094153;28;20577;-42
2023/07/19 06:57:19;;;;;;;10.90;4.77;;;18.60;1.00;;;;;;5094094;28;20171;-41
2023/07/19 06:59:45;;;;;;;12.57;4.57;;;18.60;1.00;;;;;;5094352;28;20174;-42
2023/07/19 07:02:11;;;;;;;8.93;4.67;;;18.60;1.00;;;;;;5093903;28;20167;-44
2023/07/19 07:04:36;;;;;;;9.00;3.87;;;18.70;1.00;;;;;;5093922;28;20224;-43
2023/07/19 07:07:02;;;;;;;9.10;4.40;;;18.80;1.00;;;;;;5094052;28;20204;-40
2023/07/19 07:09:28;;;;;;;9.47;4.60;;;18.80;1.00;;;;;;5094129;28;20183;-43
2023/07/19 07:11:54;;;;;;;9.57;4.93;;;18.90;1.00;;;;;;5093740;28;20178;-43
2023/07/19 07:14:19;;;;;;;13.43;4.53;;;19.00;1.00;;;;;;5075518;28;20570;-43
2023/07/19 07:16:45;;;;;;;13.23;5.20;;;19.10;99.90;;;;;;5093829;28;20240;-43
2023/07/19 07:19:11;;;;;;;10.57;4.67;;;19.20;1.00;;;;;;5093733;28;20674;-45
2023/07/19 07:21:36;;;;;;;7.93;4.63;;;19.20;99.90;;;;;;5093541;28;20174;-43
2023/07/19 07:24:02;;;;;;;11.40;5.03;;;19.30;99.90;;;;;;5093566;28;20179;-42
2023/07/19 07:26:27;;;;;;;8.00;4.23;;;19.30;99.90;;;;;;5093477;28;20659;-44
2023/07/19 07:28:53;;;;;;;7.27;4.13;;;19.50;99.90;;;;;;5093510;28;20179;-44
2023/07/19 07:31:19;;;;;;;6.90;4.20;;;19.70;99.90;;;;;;5093794;28;20179;-42
2023/07/19 07:33:44;;;;;;;9.07;4.67;;;19.80;99.90;;;;;;5093378;28;20207;-43
2023/07/19 07:36:10;;;;;;;7.80;4.10;;;19.90;99.90;;;;;;5093372;28;20201;-43
2023/07/19 07:38:36;;;;;;;10.50;4.20;;;20.00;1.00;;;;;;5093726;28;20258;-42
2023/07/19 07:41:05;;;;;;;7.87;4.27;;;20.10;99.90;;;;;;5093706;28;20656;-42
2023/07/19 07:43:30;;;;;;;10.03;3.73;;;20.10;99.90;;;;;;5093309;28;20177;-43
2023/07/19 07:45:56;;;;;;;7.17;3.60;;;20.10;1.00;;;;;;5093333;28;20187;-44
2023/07/19 07:48:22;;;;;;;9.10;4.10;;;20.20;1.00;;;;;;5093300;28;20224;-42
2023/07/19 07:50:52;;;;;;;7.13;3.83;;;20.20;99.90;;;;;;5093521;28;20224;-42
2023/07/19 07:53:21;;;;;;;11.37;3.73;;;20.10;1.00;;;;;;5094516;28;20178;-43
2023/07/19 07:55:50;;;;;;;8.67;3.70;;;20.10;1.00;;;;;;5097276;28;20228;-44
2023/07/19 07:58:16;;;;;;;7.37;3.80;;;20.10;99.90;;;;;;5097883;28;20170;-43
2023/07/19 08:00:42;;;;;;;5.63;3.13;;;20.00;99.90;;;;;;5097414;28;20178;-43
2023/07/19 08:03:11;;;;;;;8.17;3.70;;;20.00;99.90;;;;;;5097365;28;20182;-43
2023/07/19 08:05:37;;;;;;;7.23;3.70;;;20.00;99.90;;;;;;5097508;28;20230;-42
2023/07/19 08:08:05;;;;;;;5.47;3.73;;;20.00;15.00;;;;;;5097317;28;20185;-43
2023/07/19 08:10:40;;;;;;;8.03;3.30;;;19.90;1.00;;;;;;5097220;28;20261;-43
2023/07/19 08:13:07;;;;;;;4.27;3.33;;;19.90;1.00;;;;;;5097540;28;20163;-43
2023/07/19 08:15:33;;;;;;;7.23;3.80;;;19.80;1.00;;;;;;5096965;28;20207;-43
2023/07/19 08:18:00;;;;;;;10.00;3.80;;;19.80;1.00;;;;;;5097243;28;20258;-42
2023/07/19 08:20:26;;;;;;;7.87;3.97;;;19.80;31.50;;;;;;5097195;28;20233;-42
2023/07/19 08:22:51;;;;;;;7.90;3.43;;;19.80;1.00;;;;;;5097122;28;20175;-43
2023/07/19 08:25:20;;;;;;;14.77;3.80;;;19.90;1.00;;;;;;5096964;28;20206;-42
2023/07/19 08:27:46;;;;;;;5.47;3.30;;;19.90;1.00;;;;;;5097073;28;20232;-41
2023/07/19 08:30:15;;;;;;;8.73;3.50;;;20.00;99.90;;;;;;5097065;28;20542;-43
2023/07/19 08:32:45;;;;;;;6.37;3.07;;;20.10;1.00;;;;;;5096717;28;20183;-42
2023/07/19 08:35:11;;;;;;;6.43;3.30;;;20.10;99.90;;;;;;5096850;28;20221;-44
2023/07/19 08:37:37;;;;;;;6.77;3.17;;;20.30;99.90;;;;;;5096659;28;20650;-41
2023/07/19 08:40:03;;;;;;;8.03;3.87;;;20.30;99.90;;;;;;5096837;28;20174;-43
2023/07/19 08:42:29;;;;;;;10.33;2.90;;;20.40;1.00;;;;;;5096795;28;20170;-41
2023/07/19 08:44:55;;;;;;;7.43;2.93;;;20.50;99.90;;;;;;5096760;28;20185;-43
2023/07/19 08:47:20;;;;;;;7.77;3.17;;;20.50;14.20;;;;;;5096662;28;20261;-43
2023/07/19 08:49:47;;;;;;;7.80;3.50;;;20.60;1.00;;;;;;5096712;28;20647;-43
2023/07/19 08:52:13;;;;;;;6.67;2.77;;;20.70;1.00;;;;;;5097307;28;20175;-42
2023/07/19 08:54:39;;;;;;;7.43;3.07;;;20.80;99.90;;;;;;5097025;28;20229;-42
2023/07/19 08:57:05;;;;;;;7.40;3.00;;;20.80;1.00;;;;;;5097589;28;20175;-43
2023/07/19 08:59:31;;;;;;;7.87;3.40;;;20.90;1.00;;;;;;5096552;28;20179;-43
2023/07/19 09:01:57;;;;;;;5.73;3.20;;;21.10;1.00;;;;;;5096557;28;20178;-43
2023/07/19 09:04:22;;;;;;;11.03;3.70;;;21.30;99.90;;;;;;5096102;28;20171;-44
2023/07/19 09:06:49;;;;;;;8.17;3.47;;;21.30;1.00;;;;;;5095692;28;20572;-46
2023/07/19 09:09:16;;;;;;;7.20;3.30;;;21.50;41.20;;;;;;5096293;28;20628;-44
2023/07/19 09:11:46;;;;;;;7.93;3.10;;;21.50;61.20;;;;;;5096058;28;20207;-43
2023/07/19 09:14:12;;;;;;;7.23;2.77;;;21.50;1.00;;;;;;5095905;28;20195;-43
2023/07/19 09:16:39;;;;;;;5.93;3.37;;;21.60;1.00;;;;;;5095902;28;20541;-42
2023/07/19 09:19:05;;;;;;;10.43;3.93;;;21.70;40.00;;;;;;5096043;28;20179;-45
2023/07/19 09:21:45;;;;;;;8.83;3.67;;;21.80;77.00;;;;;;5095694;28;20189;-44
2023/07/19 09:24:12;;;;;;;9.93;3.80;;;21.90;99.90;;;;;;5096013;28;20175;-45
2023/07/19 09:26:57;;;;;;;8.10;3.03;;;22.00;1.00;;;;;;5095641;28;20205;-44
2023/07/19 09:29:23;;;;;;;5.47;2.80;;;22.10;1.00;;;;;;5095899;28;20178;-43
2023/07/19 09:31:56;;;;;;;6.53;2.53;;;22.10;1.00;;;;;;5095912;28;20269;-42
2023/07/19 09:34:41;;;;;;;5.83;2.57;;;22.20;1.00;;;;;;5095363;28;20621;-42
2023/07/19 09:37:07;;;;;;;5.17;2.23;;;22.30;99.90;;;;;;5095369;28;20195;-43
2023/07/19 09:39:37;;;;;;;3.97;2.40;;;22.40;99.90;;;;;;5095562;28;20236;-43
2023/07/19 09:42:03;;;;;;;4.97;2.03;;;22.60;99.90;;;;;;5095438;28;20206;-42
2023/07/19 09:44:30;;;;;;;4.73;1.90;;;22.80;1.00;;;;;;5095411;28;20639;-42
2023/07/19 09:46:57;;;;;;;3.60;2.20;;;22.90;1.00;;;;;;5095239;28;20202;-44
2023/07/19 09:49:23;;;;;;;3.80;1.87;;;22.90;99.90;;;;;;5095430;28;20194;-43
2023/07/19 09:51:50;;;;;;;5.73;2.13;;;22.90;1.00;;;;;;5077023;28;20257;-42
2023/07/19 09:54:16;;;;;;;7.17;1.97;;;22.90;1.00;;;;;;5095332;28;20214;-43
2023/07/19 09:56:43;;;;;;;5.03;2.00;;;23.10;1.00;;;;;;5095067;28;20195;-45
2023/07/19 09:59:14;;;;;;;4.73;2.23;;;23.30;99.90;;;;;;5095138;28;20263;-43
2023/07/19 10:01:40;;;;;;;6.50;1.87;;;23.40;1.00;;;;;;5095010;28;20171;-45
2023/07/19 10:04:25;;;;;;;6.33;2.40;;;23.50;99.90;;;;;;5095158;28;20227;-42
2023/07/19 10:07:07;;;;;;;5.13;1.97;;;23.80;99.90;;;;;;5095141;28;20203;-44
2023/07/19 10:09:41;;;;;;;4.70;2.03;;;23.90;8.10;;;;;;5095189;28;20171;-45
2023/07/19 10:12:16;;;;;;;3.47;1.53;;;24.00;1.00;;;;;;5094973;28;20180;-43
2023/07/19 10:15:03;;;;;;;3.30;1.77;;;24.10;28.70;;;;;;5094959;28;20267;-42
2023/07/19 10:17:37;;;;;;;2.70;1.60;;;24.40;1.00;;;;;;5093712;28;20236;-43
2023/07/19 10:20:08;;;;;;;2.90;1.73;;;24.60;1.00;;;;;;5094775;28;20221;-43
2023/07/19 10:22:56;;;;;;;7.40;2.10;;;24.70;1.00;;;;;;5095078;28;20219;-44
2023/07/19 10:25:31;;;;;;;6.53;2.13;;;24.80;1.00;;;;;;5094627;28;20198;-43
2023/07/19 10:27:58;;;;;;;5.20;2.10;;;24.70;1.00;;;;;;5095122;28;20249;-47
2023/07/19 10:30:55;;;;;;;5.20;1.90;;;24.60;1.00;;;;;;5094908;28;20175;-47
2023/07/19 10:33:26;;;;;;;4.80;1.93;;;24.70;1.00;;;;;;5094470;28;20222;-48
2023/07/19 10:35:54;;;;;;;5.67;2.00;;;24.80;1.00;;;;;;5095072;28;20301;-48
2023/07/19 10:38:24;;;;;;;8.63;2.20;;;24.90;1.00;;;;;;5094410;28;20175;-47
2023/07/19 10:40:55;;;;;;;4.40;1.67;;;24.80;1.00;;;;;;5094297;28;20639;-47
2023/07/19 10:43:21;;;;;;;5.40;2.20;;;24.80;1.00;;;;;;5094520;28;20513;-47
2023/07/19 10:45:47;;;;;;;6.63;2.27;;;24.80;1.00;;;;;;5094421;28;20229;-47
2023/07/19 10:48:13;;;;;;;3.97;1.90;;;24.90;99.90;;;;;;5094266;28;20676;-48
2023/07/19 10:50:39;;;;;;;5.63;1.87;;;25.00;1.00;;;;;;5094395;28;20179;-47
2023/07/19 10:53:06;;;;;;;6.00;1.70;;;25.10;99.90;;;;;;5094230;28;20182;-47
2023/07/19 10:55:31;;;;;;;4.90;2.37;;;25.30;1.00;;;;;;5075644;28;20225;-48
2023/07/19 10:57:57;;;;;;;5.10;2.00;;;25.40;1.00;;;;;;5094355;28;20484;-48
2023/07/19 11:00:23;;;;;;;5.80;2.60;;;25.30;1.00;;;;;;5094212;28;20540;-47
2023/07/19 11:02:48;;;;;;;6.77;2.17;;;25.40;55.50;;;;;;5094235;28;20175;-48
2023/07/19 11:05:15;;;;;;;5.53;1.80;;;25.30;1.00;;;;;;5093934;28;20191;-49
2023/07/19 11:07:41;;;;;;;3.90;2.30;;;25.20;1.00;;;;;;5093898;28;20253;-48
2023/07/19 11:10:08;;;;;;;8.13;2.30;;;25.00;1.00;;;;;;5094013;28;20266;-48
2023/07/19 11:12:33;;;;;;;8.73;2.60;;;24.80;1.00;;;;;;5094014;28;20171;-49
2023/07/19 11:15:01;;;;;;;4.73;2.10;;;24.70;99.90;;;;;;5093617;28;20302;-48
2023/07/19 11:17:28;;;;;;;5.20;2.43;;;24.80;1.00;;;;;;5094302;28;20167;-48
2023/07/19 11:19:53;;;;;;;4.73;2.10;;;25.00;1.00;;;;;;5093798;28;20201;-49
2023/07/19 11:22:23;;;;;;;10.33;2.40;;;25.00;22.50;;;;;;5093722;28;20203;-48
2023/07/19 11:24:50;;;;;;;7.80;2.57;;;25.20;99.90;;;;;;5093585;28;20178;-48
2023/07/19 11:27:19;;;;;;;6.27;2.40;;;25.20;99.90;;;;;;5093615;28;20167;-49
2023/07/19 11:29:49;;;;;;;4.60;2.10;;;25.30;1.00;;;;;;5093391;28;20269;-48
2023/07/19 11:32:18;;;;;;;5.60;2.50;;;25.40;1.00;;;;;;5093811;28;20194;-49
2023/07/19 11:34:49;;;;;;;5.63;2.00;;;25.50;1.00;;;;;;5093656;28;20203;-49
2023/07/19 11:37:25;;;;;;;4.63;1.83;;;25.50;1.00;;;;;;5093617;28;20159;-48
2023/07/19 11:39:51;;;;;;;7.83;1.87;;;25.90;1.00;;;;;;5093419;28;20591;-49
2023/07/19 11:42:39;;;;;;;6.20;1.87;;;26.00;1.00;;;;;;5093377;28;20607;-49
2023/07/19 11:45:15;;;;;;;3.65;2.00;;;26.20;1.00;;;;;;5093596;28;20248;-49
2023/07/19 11:47:42;;;;;;;4.93;1.77;;;26.40;99.90;;;;;;5093649;28;20159;-49
2023/07/19 11:50:09;;;;;;;3.78;1.58;;;26.20;99.90;;;;;;5093266;28;20175;-48
2023/07/19 11:52:51;;;;;;;8.33;2.00;;;26.20;99.90;;;;;;5093645;28;20522;-48
2023/07/19 11:55:19;;;;;;;4.32;1.60;;;26.20;99.90;;;;;;5093016;28;20597;-47
2023/07/19 11:57:48;;;;;;;4.22;1.52;;;26.20;99.90;;;;;;5093271;28;20175;-50
2023/07/19 12:00:15;;;;;;;5.35;1.65;;;26.30;55.80;;;;;;5093466;28;20544;-49
2023/07/19 12:02:44;;;;;;;2.80;1.40;;;26.40;12.40;;;;;;5094204;28;20590;-48
2023/07/19 12:05:10;;;;;;;4.28;1.30;;;26.50;1.00;;;;;;5075367;28;20686;-49
2023/07/19 12:07:36;;;;;;;2.65;1.50;;;26.40;1.00;;;;;;5093192;28;20182;-49
2023/07/19 12:10:04;;;;;;;1.85;1.20;;;26.40;1.00;;;;;;5093951;28;20187;-49
2023/07/19 12:12:31;;;;;;;3.58;1.20;;;26.40;1.00;;;;;;5093087;28;20667;-49
2023/07/19 12:15:00;;;;;;;2.25;1.15;;;26.30;1.00;;;;;;5093279;28;20240;-49
2023/07/19 12:17:25;;;;;;;2.55;1.20;;;26.40;31.10;;;;;;5093155;28;20171;-49
2023/07/19 12:19:52;;;;;;;2.15;1.10;;;26.50;1.00;;;;;;5093046;28;20175;-48
2023/07/19 12:22:18;;;;;;;1.75;1.00;;;26.60;1.00;;;;;;5092965;28;20179;-49
2023/07/19 12:24:43;;;;;;;4.25;1.23;;;26.80;1.00;;;;;;5092957;28;20183;-49
2023/07/19 12:27:10;;;;;;;2.70;1.30;;;26.90;1.00;;;;;;5093048;28;20175;-48
2023/07/19 12:29:36;;;;;;;3.85;1.30;;;26.80;1.00;;;;;;5093083;28;20175;-49
2023/07/19 12:32:04;;;;;;;3.35;1.45;;;26.80;1.00;;;;;;5093220;28;20642;-49
2023/07/19 12:34:30;;;;;;;3.13;1.60;;;26.80;1.00;;;;;;5093176;28;20568;-49
2023/07/19 12:36:55;;;;;;;2.58;1.30;;;26.90;1.00;;;;;;5092811;28;20194;-49
2023/07/19 12:39:24;;;;;;;3.33;1.55;;;27.00;1.00;;;;;;5093551;28;20178;-49
2023/07/19 12:41:55;;;;;;;1.77;1.42;;;27.10;1.00;;;;;;5096388;28;20182;-49
2023/07/19 12:44:23;;;;;;;3.65;1.45;;;27.20;1.00;;;;;;5096864;28;20235;-49
2023/07/19 12:46:48;;;;;;;2.55;1.35;;;27.20;1.00;;;;;;5096522;28;20682;-49
2023/07/19 12:49:15;;;;;;;4.10;1.70;;;27.20;1.00;;;;;;5097746;28;20183;-49
2023/07/19 12:51:42;;;;;;;5.25;1.38;;;27.20;1.00;;;;;;5097570;28;20167;-50